Terminal Aerodrome Forecast
Issued by NWS

Current Version | Previous Version | Text Only | Print | Product List | Glossary On
Versions: 1 2 3 4 5 6 7 8 9 10 11 12
076
FTUS42 KMLB 200531
TAFSFB
TAF
KSFB 200531Z 2006/2106 28005KT P6SM SKC
     FM201400 01009KT P6SM SCT020
     FM201700 05014G23KT P6SM SCT025 BKN060
     FM210200 03012KT P6SM SCT015 BKN040=

USA.gov is the U.S. government's official web portal to all federal, state and local government web resources and services.